Flight Track Log - Related Links

Times and Time Zones

All times are in EDT time to prevent confusion due to time zone crossing. See the N830QS flight status page for this flight to view local times or setup timezone preferences in your user account.

Time Position Orientation Groundspeed Altitude Reporting Facility
EDT Latitude Longitude Course Direction KTS MPH feet Rate Location/Type
Tue 07:03:47 PM 31.8022 -106.3903 253° West 177 204 4,400  Level Albuquerque Center
Tue 07:04:36 PM 31.7883 -106.4439 253° West 216 249 6,400 2,367 Climbing Albuquerque Center
Tue 07:05:36 PM 31.7694 -106.5158 253° West 274 315 8,700 2,533 Climbing Albuquerque Center
Tue 07:06:51 PM 31.8158 -106.6008 303° West 280 322 12,100 2,603 Climbing Albuquerque Center
Tue 07:07:52 PM 31.8442 -106.6897 291° West 294 338 14,600 2,341 Climbing Albuquerque Center
Tue 07:08:54 PM 31.8617 -106.7900 282° West 311 358 16,900 2,244 Climbing Albuquerque Center
Tue 07:09:55 PM 31.8853 -106.9181 282° West 332 382 19,200 2,098 Climbing Albuquerque Center
Tue 07:10:57 PM 31.9086 -107.0269 284° West 341 392 21,200 1,951 Climbing Albuquerque Center
Tue 07:11:58 PM 31.9317 -107.1369 284° West 344 396 23,200 1,951 Climbing Albuquerque Center
Tue 07:13:00 PM 31.9467 -107.2486 279° West 343 395 25,200 1,756 Climbing Albuquerque Center
Tue 07:14:01 PM 31.9281 -107.3625 259° West 353 406 26,800 1,525 Climbing Albuquerque Center
Tue 07:15:02 PM 31.9108 -107.4794 260° West 359 413 28,300 1,268 Climbing Albuquerque Center
Tue 07:16:04 PM 31.8972 -107.6083 263° West 372 428 29,400 1,024 Climbing Albuquerque Center
Tue 07:17:05 PM 31.8861 -107.7369 264° West 387 445 30,400 984 Climbing Albuquerque Center
Tue 07:18:06 PM 31.8753 -107.8669 264° West 396 456 31,400 976 Climbing Albuquerque Center
Tue 07:19:08 PM 31.8550 -107.9956 260° West 399 459 32,400 976 Climbing Albuquerque Center
Tue 07:20:09 PM 31.8367 -108.1267 261° West 404 465 33,400 780 Climbing Albuquerque Center
Tue 07:21:11 PM 31.8181 -108.2558 260° West 402 463 34,000 293 Climbing Albuquerque Center
Tue 07:22:12 PM 31.8172 -108.4164 270° West 408 470 34,000  Level Albuquerque Center
Tue 07:23:13 PM 31.7992 -108.5458 261° West 402 463 34,000  Level Albuquerque Center
Tue 07:24:15 PM 31.7783 -108.6750 259° West 401 461 34,000  Level Albuquerque Center
Tue 07:25:16 PM 31.7594 -108.8050 260° West 403 464 34,000  Level Albuquerque Center
Tue 07:26:17 PM 31.7450 -108.9317 262° West 395 455 34,000  Level Albuquerque Center
Tue 07:27:19 PM 31.7442 -109.0600 270° West 392 451 34,000  Level Albuquerque Center
Tue 07:28:20 PM 31.7631 -109.1853 280° West 391 450 34,000  Level Albuquerque Center
Tue 07:29:22 PM 31.7844 -109.3131 281° West 395 455 34,000  Level Albuquerque Center
Tue 07:30:23 PM 31.8031 -109.4397 280° West 395 455 34,000  Level Albuquerque Center
Tue 07:31:24 PM 31.8397 -109.5611 290° West 395 455 34,000  Level Albuquerque Center
Tue 07:32:26 PM 31.8950 -109.7067 294° West 403 464 34,000  Level Albuquerque Center
Tue 07:33:27 PM 31.9400 -109.8297 293° West 407 468 34,000  Level Albuquerque Center
Tue 07:34:29 PM 31.9814 -109.9536 292° West 408 470 34,000  Level Albuquerque Center
Tue 07:35:30 PM 32.0014 -110.0847 280° West 407 468 34,000  Level Albuquerque Center
Tue 07:36:31 PM 32.0139 -110.2161 276° West 406 467 34,000  Level Albuquerque Center
Tue 07:37:33 PM 32.0319 -110.3503 279° West 410 472 34,000  Level Albuquerque Center
Tue 07:38:34 PM 32.0372 -110.4836 273° West 410 472 34,000  Level Albuquerque Center
Tue 07:39:35 PM 32.0433 -110.6147 273° West 405 466 34,000  Level Albuquerque Center
Tue 07:40:37 PM 32.0639 -110.7492 280° West 400 460 34,000  Level Albuquerque Center
Tue 07:41:38 PM 32.1008 -110.8769 289° West 407 468 34,000  Level Albuquerque Center
Tue 07:42:39 PM 32.1536 -110.9950 298° West 409 471 34,000  Level Albuquerque Center
Tue 07:43:41 PM 32.2183 -111.1056 305° West 409 471 34,000  Level Albuquerque Center
Tue 07:44:42 PM 32.3119 -111.2253 313° West 414 476 34,000  Level Albuquerque Center
Tue 07:45:44 PM 32.3964 -111.3167 318° Northwest 412 474 34,000  Level Albuquerque Center
Tue 07:46:45 PM 32.4831 -111.4083 318° Northwest 416 479 34,000  Level Albuquerque Center
Tue 07:47:46 PM 32.5725 -111.4978 320° Northwest 419 482 34,000  Level Albuquerque Center
Tue 07:48:48 PM 32.6403 -111.6075 306° West 414 476 34,000  Level Albuquerque Center
Tue 07:49:49 PM 32.6792 -111.7336 290° West 406 467 34,000  Level Albuquerque Center
Tue 07:50:51 PM 32.7172 -111.8625 289° West 410 472 34,000  Level Albuquerque Center
Tue 07:51:52 PM 32.7561 -111.9917 290° West 414 476 34,000  Level Albuquerque Center
Tue 07:52:54 PM 32.7944 -112.1200 290° West 412 474 34,000  Level Albuquerque Center
Tue 07:53:55 PM 32.8389 -112.2692 290° West 414 476 34,000  Level Albuquerque Center
Tue 07:54:56 PM 32.8772 -112.4019 289° West 423 487 34,000  Level Albuquerque Center
Tue 07:55:58 PM 32.9167 -112.5381 289° West 433 498 34,000  Level Albuquerque Center
Tue 07:56:59 PM 32.9483 -112.6761 285° West 439 505 34,000  Level Albuquerque Center
Tue 07:58:01 PM 32.9378 -112.8144 265° West 427 491 34,000  Level Albuquerque Center
Tue 07:59:02 PM 32.9167 -112.9789 261° West 423 487 34,000  Level Albuquerque Center
Tue 08:00:04 PM 32.8975 -113.1167 261° West 425 489 34,000  Level Albuquerque Center
Tue 08:01:06 PM 32.8783 -113.2547 261° West 427 491 34,000  Level Albuquerque Center
Tue 08:02:07 PM 32.8586 -113.3928 260° West 427 491 34,000  Level Albuquerque Center
Tue 08:03:09 PM 32.8389 -113.5314 260° West 427 491 34,000  Level Albuquerque Center
Tue 08:03:52 PM 32.8219 -113.6497 260° West 427 491 34,000  Level Los Angeles Center
Tue 08:04:54 PM 32.8031 -113.7892 261° West 428 493 34,000  Level Los Angeles Center
Tue 08:05:56 PM 32.7822 -113.9283 260° West 428 493 34,000  Level Los Angeles Center
Tue 08:06:58 PM 32.7753 -114.0700 267° West 430 495 34,000  Level Los Angeles Center
Tue 08:08:01 PM 32.7728 -114.2131 269° West 432 497 34,000  Level Los Angeles Center
Tue 08:09:03 PM 32.7731 -114.3550 270° West 430 495 34,000  Level Los Angeles Center
Tue 08:10:05 PM 32.7686 -114.5256 268° West 430 495 34,000  Level Los Angeles Center
Tue 08:11:07 PM 32.7669 -114.6672 269° West 430 495 34,000  Level Los Angeles Center
Tue 08:12:09 PM 32.7633 -114.8086 268° West 429 494 34,000 -532 Level Los Angeles Center
Tue 08:13:11 PM 32.7614 -114.9506 269° West 430 495 32,900 -1,597 Descending Los Angeles Center
Tue 08:14:13 PM 32.7578 -115.0922 268° West 430 495 30,700 -2,419 Descending Los Angeles Center
Tue 08:15:15 PM 32.7556 -115.2661 269° West 437 503 27,900 -2,448 Descending Los Angeles Center
Tue 08:16:18 PM 32.7508 -115.4047 268° West 425 489 25,600 -2,064 Descending Los Angeles Center
Tue 08:17:20 PM 32.7486 -115.5361 269° West 406 467 23,600 -1,935 Descending Los Angeles Center
Tue 08:18:22 PM 32.7533 -115.6725 272° West 410 472 21,600 -1,839 Descending Los Angeles Center
Tue 08:19:24 PM 32.7558 -115.8050 271° West 405 466 19,800 -1,839 Descending Los Angeles Center
Tue 08:20:26 PM 32.7589 -115.9350 272° West 398 458 17,800 -1,935 Descending Los Angeles Center
Tue 08:21:28 PM 32.7625 -116.0819 272° West 374 430 15,800 -1,790 Descending Los Angeles Center
Tue 08:22:30 PM 32.7644 -116.2008 271° West 363 418 14,100 -1,645 Descending Los Angeles Center
Tue 08:23:32 PM 32.7625 -116.3183 269° West 355 409 12,400 -1,584 Descending Los Angeles Center
Tue 08:24:35 PM 32.7439 -116.4322 259° West 347 399 10,800 -1,200 Descending Los Angeles Center
Tue 08:25:37 PM 32.7281 -116.5439 260° West 341 392 9,900 -1,016 Descending Los Angeles Center
Tue 08:26:39 PM 32.7150 -116.6389 261° West 300 345 8,700 -1,306 Descending Los Angeles Center
Tue 08:27:41 PM 32.7106 -116.7319 267° West 285 328 7,200 -1,306 Descending Los Angeles Center
Tue 08:28:43 PM 32.7078 -116.8231 268° West 278 320 6,000 -1,277 Descending Los Angeles Center
Tue 08:29:15 PM 32.7000 -116.8833 261° West 275 316 5,200 -1,435 Descending Southern California TRACON
Tue 08:30:15 PM 32.7000 -116.9667 270° West 224 258 3,800 -1,289 Descending Southern California TRACON
Tue 08:31:16 PM 32.7000 -117.0333 270° West 202 232 2,600 -992 Descending Southern California TRACON
Tue 08:32:16 PM 32.7167 -117.1000 287° West 179 206 1,800 -900 Descending Southern California TRACON
Tue 08:33:16 PM 32.7167 -117.1500 270° West 149 171 800 -866 Descending Southern California TRACON
Tue 08:33:53 PM 32.7261 -117.1614 315° West 152 175 400 -420 Descending Los Angeles Center
Tue 08:34:56 PM 32.7353 -117.1978 287° West 120 138 100 -286 Descending Los Angeles Center
Tue 08:36:00 PM 32.7333 -117.1833 North  Level FlightAware Approximate

Login

Don't have an account? Register now (free) for customized features, flight alerts, and more!